createdAt,value
2023-05-05T00:02:15.296Z,9.27
2023-05-05T00:04:42.966Z,7.50
2023-05-05T00:07:10.324Z,9.68
2023-05-05T00:09:37.696Z,8.00
2023-05-05T00:12:05.578Z,8.65
2023-05-05T00:14:32.897Z,7.18
2023-05-05T00:17:00.362Z,8.05
2023-05-05T00:19:28.003Z,8.43
2023-05-05T00:21:55.632Z,25.85
2023-05-05T00:24:23.004Z,7.65
2023-05-05T00:26:51.118Z,8.43
2023-05-05T00:29:18.535Z,12.77
2023-05-05T00:31:46.139Z,11.12
2023-05-05T00:34:13.748Z,7.85
2023-05-05T00:36:41.424Z,7.93
2023-05-05T00:39:08.885Z,8.63
2023-05-05T00:41:36.657Z,9.40
2023-05-05T00:44:04.152Z,7.78
2023-05-05T00:46:31.582Z,10.07
2023-05-05T00:49:00.792Z,11.98
2023-05-05T00:51:28.231Z,8.05
2023-05-05T00:53:55.905Z,7.97
2023-05-05T00:56:24.668Z,8.50
2023-05-05T00:58:52.039Z,7.30
2023-05-05T01:01:19.686Z,7.62
2023-05-05T01:03:47.400Z,8.35
2023-05-05T01:06:32.855Z,9.13
2023-05-05T01:09:19.450Z,11.27
2023-05-05T01:11:52.968Z,6.97
2023-05-05T01:14:24.496Z,8.63
2023-05-05T01:17:01.669Z,7.45
2023-05-05T01:19:54.372Z,7.82
2023-05-05T01:22:23.730Z,7.20
2023-05-05T01:25:04.050Z,7.87
2023-05-05T01:27:46.592Z,15.50
2023-05-05T01:30:26.187Z,7.55
2023-05-05T01:32:55.377Z,7.47
2023-05-05T01:35:29.394Z,7.45
2023-05-05T01:38:07.038Z,9.10
2023-05-05T01:40:38.270Z,8.15
2023-05-05T01:43:06.504Z,9.30
2023-05-05T01:45:35.939Z,8.82
2023-05-05T01:48:03.768Z,7.05
2023-05-05T01:50:31.161Z,8.18
2023-05-05T01:52:58.536Z,9.00
2023-05-05T01:55:26.324Z,7.95
2023-05-05T01:57:53.812Z,6.82
2023-05-05T02:00:21.265Z,7.90
2023-05-05T02:02:49.363Z,8.73
2023-05-05T02:05:19.187Z,7.50
2023-05-05T02:07:46.557Z,7.93
2023-05-05T02:10:14.361Z,7.97
2023-05-05T02:12:42.704Z,7.80
2023-05-05T02:15:10.511Z,7.72
2023-05-05T02:17:41.738Z,8.07
2023-05-05T02:20:11.048Z,8.20
2023-05-05T02:22:38.771Z,6.95
2023-05-05T02:25:06.694Z,7.45
2023-05-05T02:27:34.267Z,8.05
2023-05-05T02:30:07.340Z,7.57
2023-05-05T02:32:36.339Z,11.70
2023-05-05T02:35:09.214Z,7.10
2023-05-05T02:37:36.800Z,7.62
2023-05-05T02:40:05.412Z,8.30
2023-05-05T02:42:35.891Z,7.40
2023-05-05T02:45:10.697Z,7.93
2023-05-05T02:47:39.705Z,7.50
2023-05-05T02:50:08.255Z,9.60
2023-05-05T02:52:36.818Z,9.43
2023-05-05T02:55:05.086Z,8.30
2023-05-05T02:58:02.625Z,7.15
2023-05-05T03:00:39.613Z,7.82
2023-05-05T03:03:07.473Z,8.10
2023-05-05T03:05:47.452Z,7.47
2023-05-05T03:08:49.150Z,7.22
2023-05-05T03:11:46.181Z,7.35
2023-05-05T03:14:14.330Z,7.25
2023-05-05T03:16:42.652Z,7.22
2023-05-05T03:19:13.082Z,15.27
2023-05-05T03:21:41.096Z,7.57
2023-05-05T03:24:18.578Z,7.40
2023-05-05T03:26:47.549Z,6.37
2023-05-05T03:29:15.848Z,7.97
2023-05-05T03:31:43.386Z,6.95
2023-05-05T03:34:11.048Z,7.37
2023-05-05T03:36:39.223Z,9.38
2023-05-05T03:39:08.440Z,8.70
2023-05-05T03:41:35.847Z,10.15
2023-05-05T03:44:03.769Z,7.35
2023-05-05T03:46:31.292Z,8.98
2023-05-05T03:48:58.709Z,6.90
2023-05-05T03:51:26.901Z,6.20
2023-05-05T03:53:54.417Z,7.93
2023-05-05T03:56:22.746Z,10.35
2023-05-05T03:58:51.999Z,11.32
2023-05-05T04:01:19.485Z,10.00
2023-05-05T04:03:47.247Z,9.80
2023-05-05T04:06:14.728Z,8.00
2023-05-05T04:08:42.100Z,8.30
2023-05-05T04:11:09.726Z,8.55
2023-05-05T04:13:37.148Z,6.12
2023-05-05T04:16:04.824Z,9.05
2023-05-05T04:18:32.457Z,8.35
2023-05-05T04:20:59.859Z,8.75
2023-05-05T04:23:27.379Z,8.70
2023-05-05T04:25:55.017Z,8.10
2023-05-05T04:28:22.571Z,7.20
2023-05-05T04:30:50.103Z,8.13
2023-05-05T04:33:17.731Z,7.60
2023-05-05T04:35:46.222Z,8.27
2023-05-05T04:38:13.645Z,8.50
2023-05-05T04:40:41.427Z,8.27
2023-05-05T04:43:09.371Z,10.45
2023-05-05T04:45:36.942Z,8.40
2023-05-05T04:48:05.746Z,9.50
2023-05-05T04:50:33.252Z,10.90
2023-05-05T04:53:00.806Z,12.27
2023-05-05T04:55:28.575Z,8.95
2023-05-05T04:57:55.927Z,10.00
2023-05-05T05:00:24.344Z,9.88
2023-05-05T05:02:52.579Z,9.77
2023-05-05T05:05:20.059Z,10.40
2023-05-05T05:07:47.469Z,10.25
2023-05-05T05:10:15.071Z,9.05
2023-05-05T05:12:42.524Z,11.25
2023-05-05T05:15:11.273Z,10.18
2023-05-05T05:17:38.925Z,15.68
2023-05-05T05:20:07.671Z,9.55
2023-05-05T05:22:38.274Z,10.35
2023-05-05T05:25:06.351Z,10.68
2023-05-05T05:27:33.803Z,10.68
2023-05-05T05:30:01.215Z,10.88
2023-05-05T05:32:30.091Z,9.95
2023-05-05T05:34:57.605Z,10.77
2023-05-05T05:37:28.819Z,9.15
2023-05-05T05:39:56.934Z,9.60
2023-05-05T05:42:24.590Z,11.60
2023-05-05T05:44:52.096Z,9.93
2023-05-05T05:47:19.761Z,10.23
2023-05-05T05:49:47.083Z,9.93
2023-05-05T05:52:14.459Z,9.98
2023-05-05T05:54:42.176Z,9.52
2023-05-05T05:57:09.695Z,9.50
2023-05-05T05:59:37.040Z,9.38
2023-05-05T06:02:05.065Z,10.18
2023-05-05T06:04:32.995Z,9.55
2023-05-05T06:07:01.242Z,11.10
2023-05-05T06:09:28.950Z,10.60
2023-05-05T06:11:56.559Z,12.27
2023-05-05T06:14:23.985Z,11.02
2023-05-05T06:16:52.301Z,11.15
2023-05-05T06:19:20.542Z,10.25
2023-05-05T06:21:48.177Z,11.60
2023-05-05T06:24:16.026Z,11.75
2023-05-05T06:26:44.036Z,10.27
2023-05-05T06:29:12.460Z,10.90
2023-05-05T06:31:39.928Z,10.00
2023-05-05T06:34:07.565Z,11.15
2023-05-05T06:36:34.940Z,10.13
2023-05-05T06:39:02.527Z,11.00
2023-05-05T06:41:30.181Z,11.38
2023-05-05T06:43:57.492Z,11.63
2023-05-05T06:46:25.138Z,11.73
2023-05-05T06:48:53.028Z,11.15
2023-05-05T06:51:20.591Z,10.20
2023-05-05T06:53:47.926Z,11.20
2023-05-05T06:56:15.851Z,9.88
2023-05-05T06:58:43.265Z,12.23
2023-05-05T07:01:10.691Z,12.07
2023-05-05T07:03:38.358Z,10.50
2023-05-05T07:06:06.013Z,9.32
2023-05-05T07:08:33.476Z,10.43
2023-05-05T07:11:03.962Z,10.60
2023-05-05T07:13:31.293Z,10.15
2023-05-05T07:15:58.611Z,10.57
2023-05-05T07:18:26.220Z,10.05
2023-05-05T07:20:53.616Z,10.07
2023-05-05T07:23:20.984Z,10.60
2023-05-05T07:25:48.793Z,9.13
2023-05-05T07:28:16.364Z,10.55
2023-05-05T07:30:43.771Z,10.98
2023-05-05T07:33:11.464Z,10.32
2023-05-05T07:35:39.066Z,10.57
2023-05-05T07:38:07.722Z,10.45
2023-05-05T07:40:36.318Z,10.02
2023-05-05T07:43:04.743Z,10.98
2023-05-05T07:45:32.158Z,11.35
2023-05-05T07:47:59.819Z,12.05
2023-05-05T07:50:27.200Z,10.60
2023-05-05T07:53:02.546Z,9.95
2023-05-05T07:55:41.413Z,10.48
2023-05-05T07:58:10.838Z,10.98
2023-05-05T08:00:38.865Z,9.60
2023-05-05T08:03:08.951Z,10.55
2023-05-05T08:05:38.286Z,10.75
2023-05-05T08:08:06.195Z,10.75
2023-05-05T08:10:33.908Z,11.52
2023-05-05T08:13:01.335Z,10.32
2023-05-05T08:15:28.732Z,10.27
2023-05-05T08:17:56.520Z,12.48
2023-05-05T08:20:27.883Z,11.98
2023-05-05T08:22:55.753Z,11.85
2023-05-05T08:25:23.383Z,12.43
2023-05-05T08:27:50.888Z,11.60
2023-05-05T08:30:28.183Z,12.07
2023-05-05T08:32:55.661Z,11.12
2023-05-05T08:35:23.903Z,11.65
2023-05-05T08:37:51.768Z,11.10
2023-05-05T08:40:20.880Z,12.70
2023-05-05T08:42:49.010Z,12.32
2023-05-05T08:45:16.917Z,11.80
2023-05-05T08:47:45.056Z,12.20
2023-05-05T08:50:12.711Z,11.15
2023-05-05T08:52:41.979Z,13.40
2023-05-05T08:55:26.596Z,12.82
2023-05-05T08:57:57.966Z,14.50
2023-05-05T09:00:27.088Z,13.68
2023-05-05T09:02:56.982Z,12.05
2023-05-05T09:05:25.014Z,11.95
2023-05-05T09:07:52.403Z,12.93
2023-05-05T09:10:20.058Z,12.80
2023-05-05T09:12:49.555Z,12.82
2023-05-05T09:15:16.874Z,17.48
2023-05-05T09:17:44.522Z,14.38
2023-05-05T09:20:12.840Z,13.15
2023-05-05T09:22:45.031Z,13.30
2023-05-05T09:25:13.918Z,13.70
2023-05-05T09:27:48.557Z,13.23
2023-05-05T09:30:24.746Z,13.62
2023-05-05T09:32:53.544Z,12.35
2023-05-05T09:35:22.055Z,13.55
2023-05-05T09:37:49.501Z,12.23
2023-05-05T09:40:20.308Z,13.15
2023-05-05T09:42:48.152Z,13.32
2023-05-05T09:45:25.218Z,12.40
2023-05-05T09:47:58.764Z,12.30
2023-05-05T09:50:30.534Z,12.82
2023-05-05T09:53:02.629Z,13.07
2023-05-05T09:55:31.386Z,12.80
2023-05-05T09:58:21.625Z,13.20
2023-05-05T10:00:50.134Z,12.02
2023-05-05T10:03:18.822Z,13.15
2023-05-05T10:05:50.708Z,12.13
2023-05-05T10:08:19.789Z,12.63
2023-05-05T10:10:53.963Z,12.70
2023-05-05T10:13:22.512Z,12.55
2023-05-05T10:15:54.580Z,13.70
2023-05-05T10:18:22.968Z,13.35
2023-05-05T10:20:59.121Z,12.23
2023-05-05T10:23:47.999Z,12.73
2023-05-05T10:26:15.563Z,13.05
2023-05-05T10:28:55.110Z,12.25
2023-05-05T10:31:39.911Z,12.02
2023-05-05T10:34:10.277Z,12.85
2023-05-05T10:36:40.851Z,11.68
2023-05-05T10:39:10.764Z,13.13
2023-05-05T10:41:38.209Z,13.02
2023-05-05T10:44:05.936Z,12.75
2023-05-05T10:46:33.604Z,13.68
2023-05-05T10:49:41.151Z,13.93
2023-05-05T10:52:14.476Z,14.02
2023-05-05T10:55:02.496Z,15.20
2023-05-05T10:57:30.429Z,14.10
2023-05-05T10:59:57.804Z,14.10
2023-05-05T11:02:28.787Z,13.75
2023-05-05T11:05:09.744Z,13.98
2023-05-05T11:07:37.415Z,14.73
2023-05-05T11:10:06.189Z,13.68
2023-05-05T11:12:54.142Z,13.73
2023-05-05T11:15:28.103Z,13.07
2023-05-05T11:17:58.480Z,15.68
2023-05-05T11:20:35.325Z,13.15
2023-05-05T11:23:02.558Z,12.98
2023-05-05T11:25:41.176Z,14.05
2023-05-05T11:28:12.354Z,14.23
2023-05-05T11:31:03.477Z,13.57
2023-05-05T11:33:40.086Z,13.65
2023-05-05T11:36:11.796Z,15.52
2023-05-05T11:38:39.419Z,14.32
2023-05-05T11:41:12.501Z,13.95
2023-05-05T11:43:41.287Z,14.20
2023-05-05T11:46:15.541Z,15.43
2023-05-05T11:48:53.512Z,14.07
2023-05-05T11:51:22.247Z,13.48
2023-05-05T11:53:50.031Z,14.65
2023-05-05T11:56:19.360Z,14.80
2023-05-05T11:58:47.139Z,15.10
2023-05-05T12:01:14.804Z,15.32
2023-05-05T12:03:43.457Z,13.55
2023-05-05T12:06:10.983Z,12.70
2023-05-05T12:08:38.779Z,12.52
2023-05-05T12:11:08.071Z,14.35
2023-05-05T12:13:35.445Z,13.43
2023-05-05T12:16:13.082Z,13.62
2023-05-05T12:18:41.169Z,13.62
2023-05-05T12:21:18.147Z,14.30
2023-05-05T12:23:45.863Z,13.25
2023-05-05T12:26:31.727Z,12.73
2023-05-05T12:28:59.678Z,13.62
2023-05-05T12:31:37.058Z,14.07
2023-05-05T12:34:05.196Z,15.82
2023-05-05T12:36:33.640Z,14.50
2023-05-05T12:39:01.039Z,15.30
2023-05-05T12:41:28.745Z,15.15
2023-05-05T12:43:57.161Z,19.20
2023-05-05T12:46:24.676Z,14.85
2023-05-05T12:49:07.801Z,15.68
2023-05-05T12:51:36.247Z,15.40
2023-05-05T12:54:08.260Z,12.73
2023-05-05T12:56:42.943Z,14.57
2023-05-05T12:59:23.372Z,14.13
2023-05-05T13:01:58.635Z,14.52
2023-05-05T13:04:27.034Z,15.02
2023-05-05T13:07:16.100Z,13.48
2023-05-05T13:09:43.807Z,13.95
2023-05-05T13:12:12.350Z,12.98
2023-05-05T13:14:40.736Z,13.07
2023-05-05T13:17:08.731Z,11.93
2023-05-05T13:19:41.702Z,12.45
2023-05-05T13:22:10.110Z,12.37
2023-05-05T13:24:49.960Z,12.70
2023-05-05T13:27:19.848Z,17.45
2023-05-05T13:29:47.205Z,13.25
2023-05-05T13:32:14.596Z,13.38
2023-05-05T13:34:43.566Z,12.98
2023-05-05T13:37:10.970Z,13.20
2023-05-05T13:39:38.417Z,12.18
2023-05-05T13:42:06.066Z,12.70
2023-05-05T13:44:33.431Z,13.07
2023-05-05T13:47:00.975Z,15.15
2023-05-05T13:49:28.682Z,12.80
2023-05-05T13:51:56.324Z,13.45
2023-05-05T13:54:23.778Z,12.05
2023-05-05T13:56:51.423Z,15.73
2023-05-05T13:59:18.813Z,13.35
2023-05-05T14:01:46.157Z,12.23
2023-05-05T14:04:16.934Z,13.23
2023-05-05T14:06:44.661Z,13.65
2023-05-05T14:09:13.143Z,13.02
2023-05-05T14:11:41.160Z,13.02
2023-05-05T14:14:08.538Z,13.25
2023-05-05T14:16:35.935Z,11.52
2023-05-05T14:19:03.655Z,12.10
2023-05-05T14:21:32.563Z,12.15
2023-05-05T14:24:00.013Z,11.93
2023-05-05T14:26:27.644Z,11.65
2023-05-05T14:28:54.991Z,11.73
2023-05-05T14:31:22.394Z,11.52
2023-05-05T14:33:50.084Z,12.43
2023-05-05T14:36:17.553Z,11.73
2023-05-05T14:38:44.916Z,12.18
2023-05-05T14:41:12.656Z,10.85
2023-05-05T14:43:40.006Z,11.63
2023-05-05T14:46:07.543Z,12.13
2023-05-05T14:48:35.494Z,11.12
2023-05-05T14:51:02.845Z,11.70
2023-05-05T14:53:30.410Z,11.25
2023-05-05T14:55:58.026Z,12.52
2023-05-05T14:58:25.436Z,12.02
2023-05-05T15:00:52.901Z,12.43
2023-05-05T15:03:20.738Z,11.63
2023-05-05T15:05:48.134Z,12.40
2023-05-05T15:08:15.508Z,12.80
2023-05-05T15:10:43.145Z,12.00
2023-05-05T15:13:10.510Z,11.02
2023-05-05T15:15:37.923Z,12.27
2023-05-05T15:18:05.659Z,11.95
2023-05-05T15:20:33.092Z,11.25
2023-05-05T15:23:01.396Z,10.77
2023-05-05T15:25:29.227Z,12.55
2023-05-05T15:27:56.650Z,14.13
2023-05-05T15:30:24.013Z,10.40
2023-05-05T15:32:51.666Z,11.20
2023-05-05T15:35:19.183Z,12.27
2023-05-05T15:37:46.540Z,11.10
2023-05-05T15:40:14.395Z,11.25
2023-05-05T15:42:41.752Z,12.40
2023-05-05T15:45:14.856Z,11.77
2023-05-05T15:47:42.665Z,11.73
2023-05-05T15:50:10.349Z,10.48
2023-05-05T15:52:37.824Z,11.65
2023-05-05T15:55:06.672Z,11.02
2023-05-05T15:57:34.199Z,11.15
2023-05-05T16:00:01.561Z,12.07
2023-05-05T16:02:29.252Z,11.82
2023-05-05T16:04:57.133Z,11.35
2023-05-05T16:07:24.502Z,11.20
2023-05-05T16:09:52.469Z,10.98
2023-05-05T16:12:22.873Z,10.73
2023-05-05T16:14:50.294Z,11.95
2023-05-05T16:17:17.671Z,10.80
2023-05-05T16:19:45.324Z,13.90
2023-05-05T16:22:12.671Z,12.63
2023-05-05T16:24:40.736Z,10.98
2023-05-05T16:27:09.626Z,10.52
2023-05-05T16:29:36.995Z,13.23
2023-05-05T16:32:05.493Z,12.37
2023-05-05T16:34:33.203Z,12.15
2023-05-05T16:37:00.768Z,11.18
2023-05-05T16:39:28.429Z,11.90
2023-05-05T16:41:56.103Z,11.73
2023-05-05T16:44:23.477Z,10.85
2023-05-05T16:46:50.816Z,10.15
2023-05-05T16:49:18.432Z,12.57
2023-05-05T16:51:45.888Z,10.82
2023-05-05T16:54:13.280Z,12.10
2023-05-05T16:56:40.919Z,11.82
2023-05-05T16:59:08.367Z,11.00
2023-05-05T17:01:35.758Z,14.13
2023-05-05T17:04:03.429Z,14.02
2023-05-05T17:06:33.535Z,14.82
2023-05-05T17:09:00.926Z,17.00
2023-05-05T17:11:28.550Z,16.08
2023-05-05T17:13:56.321Z,13.50
2023-05-05T17:16:23.764Z,12.07
2023-05-05T17:18:53.227Z,15.20
2023-05-05T17:21:20.601Z,13.30
2023-05-05T17:23:47.939Z,13.25
2023-05-05T17:26:15.649Z,12.27
2023-05-05T17:28:43.111Z,11.52
2023-05-05T17:31:11.048Z,11.75
2023-05-05T17:33:38.708Z,13.43
2023-05-05T17:36:06.486Z,12.68
2023-05-05T17:38:33.812Z,16.73
2023-05-05T17:41:01.703Z,16.52
2023-05-05T17:43:29.046Z,16.80
2023-05-05T17:45:56.517Z,20.15
2023-05-05T17:48:24.307Z,16.27
2023-05-05T17:50:54.617Z,13.95
2023-05-05T17:53:22.394Z,13.95
2023-05-05T17:55:50.024Z,13.82
2023-05-05T17:58:17.432Z,12.93
2023-05-05T18:00:44.790Z,15.70
2023-05-05T18:03:12.538Z,14.52
2023-05-05T18:05:40.003Z,14.98
2023-05-05T18:08:07.761Z,12.48
2023-05-05T18:10:35.400Z,20.83
2023-05-05T18:13:02.811Z,14.85
2023-05-05T18:15:30.210Z,13.20
2023-05-05T18:17:57.885Z,12.35
2023-05-05T18:20:25.233Z,10.73
2023-05-05T18:22:52.596Z,11.40
2023-05-05T18:25:20.331Z,10.95
2023-05-05T18:27:47.696Z,11.15
2023-05-05T18:30:15.108Z,11.93
2023-05-05T18:32:42.733Z,14.85
2023-05-05T18:35:10.454Z,12.65
2023-05-05T18:37:38.033Z,16.00
2023-05-05T18:40:06.891Z,14.75
2023-05-05T18:42:34.304Z,21.95
2023-05-05T18:45:01.633Z,21.25
2023-05-05T18:47:29.366Z,18.67
2023-05-05T18:49:56.925Z,15.60
2023-05-05T18:52:24.298Z,13.65
2023-05-05T18:54:52.026Z,14.68
2023-05-05T18:57:19.355Z,18.67
2023-05-05T18:59:46.808Z,13.05
2023-05-05T19:02:14.441Z,11.65
2023-05-05T19:04:42.223Z,14.18
2023-05-05T19:07:09.615Z,13.88
2023-05-05T19:09:37.498Z,14.87
2023-05-05T19:12:05.100Z,13.15
2023-05-05T19:14:32.614Z,12.15
2023-05-05T19:17:01.448Z,19.08
2023-05-05T19:19:28.925Z,18.90
2023-05-05T19:21:56.814Z,21.85
2023-05-05T19:24:24.449Z,18.35
2023-05-05T19:26:51.830Z,28.98
2023-05-05T19:29:19.219Z,22.67
2023-05-05T19:31:46.924Z,22.73
2023-05-05T19:34:14.361Z,24.58
2023-05-05T19:36:41.734Z,19.55
2023-05-05T19:39:09.346Z,22.67
2023-05-05T19:41:36.684Z,19.30
2023-05-05T19:44:04.192Z,20.60
2023-05-05T19:46:31.984Z,20.08
2023-05-05T19:48:59.423Z,16.27
2023-05-05T19:51:27.185Z,16.40
2023-05-05T19:53:54.796Z,22.10
2023-05-05T19:56:23.160Z,18.95
2023-05-05T19:58:54.903Z,15.95
2023-05-05T20:01:22.521Z,16.05
2023-05-05T20:04:32.958Z,22.92
2023-05-05T20:07:00.688Z,20.05
2023-05-05T20:09:28.056Z,15.30
2023-05-05T20:11:55.808Z,16.00
2023-05-05T20:14:23.540Z,15.13
2023-05-05T20:16:50.904Z,22.27
2023-05-05T20:19:18.601Z,10.98
2023-05-05T20:21:46.216Z,13.27
2023-05-05T20:24:13.594Z,14.80
2023-05-05T20:26:41.391Z,13.68
2023-05-05T20:29:09.012Z,12.27
2023-05-05T20:31:36.979Z,15.05
2023-05-05T20:34:04.359Z,12.10
2023-05-05T20:36:32.646Z,14.18
2023-05-05T20:39:00.024Z,14.25
2023-05-05T20:41:27.379Z,11.23
2023-05-05T20:43:54.962Z,13.23
2023-05-05T20:46:22.361Z,11.30
2023-05-05T20:48:49.744Z,14.63
2023-05-05T20:51:17.446Z,13.62
2023-05-05T20:53:44.833Z,10.88
2023-05-05T20:56:12.175Z,11.27
2023-05-05T20:58:39.939Z,10.02
2023-05-05T21:01:07.342Z,12.00
2023-05-05T21:03:34.714Z,13.68
2023-05-05T21:06:02.378Z,11.52
2023-05-05T21:08:30.083Z,12.20
2023-05-05T21:10:57.455Z,12.20
2023-05-05T21:13:25.175Z,10.57
2023-05-05T21:15:52.525Z,10.88
2023-05-05T21:18:19.887Z,10.00
2023-05-05T21:20:47.490Z,10.23
2023-05-05T21:23:14.821Z,9.50
2023-05-05T21:25:42.199Z,14.07
2023-05-05T21:28:09.812Z,10.68
2023-05-05T21:30:38.033Z,10.90
2023-05-05T21:33:05.464Z,11.73
2023-05-05T21:35:33.093Z,10.38
2023-05-05T21:38:00.540Z,11.05
2023-05-05T21:40:27.885Z,10.27
2023-05-05T21:42:55.498Z,9.07
2023-05-05T21:45:22.968Z,10.30
2023-05-05T21:47:50.865Z,14.32
2023-05-05T21:50:18.527Z,9.88
2023-05-05T21:52:46.017Z,13.05
2023-05-05T21:55:13.395Z,9.40
2023-05-05T21:57:41.027Z,18.67
2023-05-05T22:00:09.178Z,11.10
2023-05-05T22:02:39.725Z,10.75
2023-05-05T22:05:07.722Z,10.32
2023-05-05T22:07:35.086Z,9.50
2023-05-05T22:10:03.668Z,13.25
2023-05-05T22:12:31.558Z,9.65
2023-05-05T22:14:58.943Z,11.20
2023-05-05T22:17:26.333Z,10.60
2023-05-05T22:19:53.956Z,10.32
2023-05-05T22:22:21.310Z,13.73
2023-05-05T22:24:48.760Z,9.80
2023-05-05T22:27:16.435Z,10.40
2023-05-05T22:29:43.818Z,10.00
2023-05-05T22:32:11.302Z,11.18
2023-05-05T22:34:38.896Z,9.60
2023-05-05T22:37:06.362Z,9.18
2023-05-05T22:39:33.803Z,9.25
2023-05-05T22:42:01.822Z,10.30
2023-05-05T22:44:29.259Z,11.00
2023-05-05T22:46:56.625Z,10.73
2023-05-05T22:49:24.317Z,11.40
2023-05-05T22:51:51.921Z,12.30
2023-05-05T22:54:19.305Z,10.20
2023-05-05T22:56:47.445Z,9.73
2023-05-05T22:59:14.817Z,10.40
2023-05-05T23:01:42.263Z,19.87
2023-05-05T23:04:09.968Z,8.43
2023-05-05T23:06:37.378Z,9.05
2023-05-05T23:09:04.866Z,10.23
2023-05-05T23:11:32.498Z,8.73
2023-05-05T23:13:59.917Z,10.23
2023-05-05T23:16:27.335Z,12.98
2023-05-05T23:18:55.019Z,9.02
2023-05-05T23:21:22.336Z,11.30
2023-05-05T23:23:49.660Z,11.68
2023-05-05T23:26:17.300Z,9.50
2023-05-05T23:28:44.657Z,10.50
2023-05-05T23:31:12.043Z,9.25
2023-05-05T23:33:39.675Z,10.95
2023-05-05T23:36:07.098Z,9.30
2023-05-05T23:38:34.507Z,10.13
2023-05-05T23:41:02.114Z,12.25
2023-05-05T23:43:29.499Z,10.23
2023-05-05T23:45:56.890Z,11.77
2023-05-05T23:48:24.561Z,12.45
2023-05-05T23:50:52.558Z,11.00
2023-05-05T23:53:19.927Z,9.95
2023-05-05T23:55:47.587Z,10.35
2023-05-05T23:58:14.962Z,8.90
